createdAt,value
2018-11-03T00:00:14.794Z,30.7
2018-11-03T00:01:05.066Z,30.7
2018-11-03T00:01:54.977Z,30.7
2018-11-03T00:02:44.590Z,30.7
2018-11-03T00:03:34.759Z,30.7
2018-11-03T00:04:24.069Z,30.7
2018-11-03T00:05:15.337Z,30.7
2018-11-03T00:06:05.710Z,30.7
2018-11-03T00:06:54.933Z,30.6
2018-11-03T00:25:04.001Z,30.5
2018-11-03T00:25:52.153Z,30.6
2018-11-03T00:26:43.197Z,30.5
2018-11-03T00:27:33.268Z,30.5
2018-11-03T00:28:25.044Z,30.5
2018-11-03T00:29:14.088Z,30.5
2018-11-03T00:30:02.946Z,30.5
2018-11-03T00:30:53.573Z,30.5
2018-11-03T00:31:44.997Z,30.5
2018-11-03T00:32:33.602Z,30.5
2018-11-03T00:33:24.120Z,30.5
2018-11-03T00:34:13.777Z,30.5
2018-11-03T00:35:06.128Z,30.5
2018-11-03T00:35:54.307Z,30.5
2018-11-03T00:36:43.185Z,30.5
2018-11-03T00:37:34.189Z,30.4
2018-11-03T00:38:24.784Z,30.4
2018-11-03T00:39:14.207Z,30.4
2018-11-03T00:40:04.251Z,30.4
2018-11-03T00:40:54.626Z,30.4
2018-11-03T00:41:45.604Z,30.4
2018-11-03T00:42:34.595Z,30.4
2018-11-03T00:43:24.479Z,30.4
2018-11-03T00:44:14.386Z,30.4
2018-11-03T00:45:06.390Z,30.4
2018-11-03T00:45:54.489Z,30.4
2018-11-03T00:46:45.314Z,30.4
2018-11-03T00:47:35.406Z,30.4
2018-11-03T00:48:26.981Z,30.4
2018-11-03T00:49:15.003Z,30.4
2018-11-03T00:50:04.741Z,30.4
2018-11-03T00:50:55.644Z,30.4
2018-11-03T00:51:46.835Z,30.4
2018-11-03T00:52:36.028Z,30.4
2018-11-03T00:53:26.174Z,30.4
2018-11-03T00:54:15.874Z,30.4
2018-11-03T00:55:05.901Z,30.3
2018-11-03T00:55:56.285Z,30.4
2018-11-03T00:56:46.061Z,30.3
2018-11-03T00:57:35.901Z,30.3
2018-11-03T00:58:26.138Z,30.3
2018-11-03T00:59:15.401Z,30.3
2018-11-03T01:00:04.731Z,30.3
2018-11-03T01:00:56.045Z,30.3
2018-11-03T01:01:46.081Z,30.3
2018-11-03T01:02:36.566Z,30.3
2018-11-03T01:03:26.551Z,30.3
2018-11-03T01:04:15.876Z,30.3
2018-11-03T01:05:07.433Z,30.3
2018-11-03T01:05:55.629Z,30.3
2018-11-03T01:06:46.998Z,30.3
2018-11-03T01:07:36.369Z,30.3
2018-11-03T01:08:27.533Z,30.3
2018-11-03T01:09:17.015Z,30.3
2018-11-03T01:10:07.070Z,30.3
2018-11-03T01:10:57.367Z,30.3
2018-11-03T01:11:47.187Z,30.3
2018-11-03T01:12:36.586Z,30.3
2018-11-03T01:13:25.325Z,30.3
2018-11-03T01:14:16.203Z,30.3
2018-11-03T01:15:07.144Z,30.3
2018-11-03T01:15:56.592Z,30.3
2018-11-03T01:16:47.492Z,30.3
2018-11-03T01:17:37.695Z,30.2
2018-11-03T01:18:27.484Z,30.3
2018-11-03T01:19:17.984Z,30.3
2018-11-03T01:20:07.509Z,30.2
2018-11-03T01:20:57.824Z,30.2
2018-11-03T01:21:46.882Z,30.2
2018-11-03T01:22:37.444Z,30.2
2018-11-03T01:23:27.817Z,30.2
2018-11-03T01:24:17.487Z,30.2
2018-11-03T01:25:07.259Z,30.2
2018-11-03T01:25:58.231Z,30.2
2018-11-03T01:26:48.844Z,30.2
2018-11-03T01:27:37.817Z,30.2
2018-11-03T01:28:28.676Z,30.2
2018-11-03T01:29:18.231Z,30.1
2018-11-03T01:30:08.319Z,30.1
2018-11-03T01:30:56.924Z,30.1
2018-11-03T01:31:48.507Z,30.1
2018-11-03T01:32:39.383Z,30.1
2018-11-03T01:33:28.664Z,30.1
2018-11-03T01:34:18.531Z,30.1
2018-11-03T01:35:08.840Z,30.1
2018-11-03T01:35:57.656Z,30.1
2018-11-03T01:36:48.416Z,30.1
2018-11-03T01:37:39.059Z,30.1
2018-11-03T01:38:28.851Z,30.1
2018-11-03T01:39:19.497Z,30.1
2018-11-03T01:40:09.558Z,30.1
2018-11-03T01:40:59.274Z,30.1
2018-11-03T01:41:48.748Z,30.1
2018-11-03T01:42:39.748Z,30.1
2018-11-03T01:43:29.178Z,30.1
2018-11-03T01:44:18.793Z,30.1
2018-11-03T01:45:07.539Z,30
2018-11-03T01:45:58.498Z,30.1
2018-11-03T01:46:49.125Z,30.1
2018-11-03T01:47:39.250Z,30.1
2018-11-03T01:48:28.788Z,30.1
2018-11-03T01:49:19.382Z,30.1
2018-11-03T01:50:10.004Z,30.1
2018-11-03T01:51:00.153Z,30.1
2018-11-03T01:51:49.242Z,30
2018-11-03T01:52:39.660Z,30
2018-11-03T01:53:29.060Z,30
2018-11-03T01:54:20.315Z,30
2018-11-03T01:55:10.658Z,30
2018-11-03T01:56:00.070Z,30
2018-11-03T01:56:49.887Z,30
2018-11-03T01:57:40.764Z,30
2018-11-03T01:58:30.035Z,30
2018-11-03T01:59:20.420Z,30
2018-11-03T02:00:10.155Z,30
2018-11-03T02:01:00.492Z,30
2018-11-03T02:01:49.671Z,30
2018-11-03T02:02:40.155Z,30
2018-11-03T02:03:29.887Z,30
2018-11-03T02:04:20.240Z,29.9
2018-11-03T02:05:10.052Z,29.9
2018-11-03T02:06:00.792Z,29.9
2018-11-03T02:06:50.345Z,29.9
2018-11-03T02:07:41.367Z,29.9
2018-11-03T02:08:31.935Z,29.9
2018-11-03T02:09:21.007Z,29.9
2018-11-03T02:10:10.754Z,29.9
2018-11-03T02:11:01.535Z,29.9
2018-11-03T02:11:50.202Z,29.9
2018-11-03T02:12:43.729Z,29.9
2018-11-03T02:13:32.290Z,29.9
2018-11-03T02:14:21.694Z,29.9
2018-11-03T02:15:11.406Z,29.9
2018-11-03T02:16:03.772Z,29.9
2018-11-03T02:16:52.246Z,29.9
2018-11-03T02:17:41.749Z,29.9
2018-11-03T02:18:31.784Z,29.9
2018-11-03T02:19:23.081Z,29.9
2018-11-03T02:20:11.825Z,29.9
2018-11-03T02:21:01.908Z,29.9
2018-11-03T02:21:52.572Z,29.9
2018-11-03T02:22:41.798Z,29.9
2018-11-03T02:23:31.712Z,29.9
2018-11-03T02:24:21.514Z,29.9
2018-11-03T02:25:12.508Z,29.9
2018-11-03T02:26:02.534Z,29.9
2018-11-03T02:26:52.471Z,29.8
2018-11-03T02:27:41.868Z,29.8
2018-11-03T02:28:31.585Z,29.8
2018-11-03T02:29:22.111Z,29.8
2018-11-03T02:30:12.695Z,29.8
2018-11-03T02:31:02.750Z,29.8
2018-11-03T02:31:52.866Z,29.8
2018-11-03T02:32:43.654Z,29.8
2018-11-03T02:33:32.996Z,29.8
2018-11-03T02:34:22.631Z,29.8
2018-11-03T02:35:13.256Z,29.8
2018-11-03T02:36:04.400Z,29.8
2018-11-03T02:36:53.075Z,29.8
2018-11-03T02:37:42.798Z,29.8
2018-11-03T02:38:32.984Z,29.8
2018-11-03T02:39:23.664Z,29.8
2018-11-03T02:40:12.670Z,29.8
2018-11-03T02:41:04.007Z,29.8
2018-11-03T02:41:53.390Z,29.8
2018-11-03T02:42:44.729Z,29.8
2018-11-03T02:43:33.068Z,29.8
2018-11-03T02:44:22.862Z,29.8
2018-11-03T02:45:13.813Z,29.8
2018-11-03T02:46:03.642Z,29.8
2018-11-03T02:46:53.160Z,29.8
2018-11-03T02:47:43.940Z,29.8
2018-11-03T02:48:34.011Z,29.8
2018-11-03T02:49:25.491Z,29.8
2018-11-03T02:50:13.807Z,29.7
2018-11-03T02:51:04.184Z,29.8
2018-11-03T02:51:54.549Z,29.7
2018-11-03T02:52:44.735Z,29.7
2018-11-03T02:53:33.887Z,29.7
2018-11-03T02:54:24.717Z,29.7
2018-11-03T02:55:13.942Z,29.7
2018-11-03T02:56:05.421Z,29.7
2018-11-03T02:56:54.480Z,29.7
2018-11-03T02:57:44.131Z,29.7
2018-11-03T02:58:34.539Z,29.7
2018-11-03T02:59:25.413Z,29.7
2018-11-03T03:00:14.553Z,29.7
2018-11-03T03:01:04.926Z,29.6
2018-11-03T03:01:55.269Z,29.7
2018-11-03T03:02:45.826Z,29.6
2018-11-03T03:03:34.993Z,29.6
2018-11-03T03:04:25.271Z,29.6
2018-11-03T03:05:14.995Z,29.6
2018-11-03T03:06:06.131Z,29.6
2018-11-03T03:06:56.218Z,29.6
2018-11-03T03:07:44.596Z,29.6
2018-11-03T03:08:35.240Z,29.6
2018-11-03T03:09:25.891Z,29.6
2018-11-03T03:10:14.933Z,29.6
2018-11-03T03:11:05.822Z,29.6
2018-11-03T03:11:56.347Z,29.6
2018-11-03T03:12:46.747Z,29.6
2018-11-03T03:13:35.033Z,29.6
2018-11-03T03:14:25.451Z,29.6
2018-11-03T03:15:16.396Z,29.6
2018-11-03T03:16:07.033Z,29.6
2018-11-03T03:16:55.654Z,29.6
2018-11-03T03:17:45.178Z,29.6
2018-11-03T03:18:35.851Z,29.6
2018-11-03T03:19:25.860Z,29.6
2018-11-03T03:20:16.095Z,29.6
2018-11-03T03:21:06.418Z,29.6
2018-11-03T03:21:56.237Z,29.6
2018-11-03T03:22:46.570Z,29.6
2018-11-03T03:23:36.267Z,29.6
2018-11-03T03:24:26.166Z,29.5
2018-11-03T03:25:17.099Z,29.5
2018-11-03T03:26:06.765Z,29.5
2018-11-03T03:26:57.650Z,29.5
2018-11-03T03:27:46.172Z,29.5
2018-11-03T03:28:37.371Z,29.5
2018-11-03T03:29:27.591Z,29.5
2018-11-03T03:30:18.032Z,29.5
2018-11-03T03:31:07.585Z,29.5
2018-11-03T03:31:56.156Z,29.5
2018-11-03T03:32:48.660Z,29.5
2018-11-03T03:33:36.907Z,29.5
2018-11-03T03:34:28.505Z,29.5
2018-11-03T03:35:18.611Z,29.5
2018-11-03T03:36:07.540Z,29.4
2018-11-03T03:36:57.419Z,29.5
2018-11-03T03:37:47.779Z,29.4
2018-11-03T03:38:37.955Z,29.4
2018-11-03T03:39:27.856Z,29.4
2018-11-03T03:40:18.486Z,29.4
2018-11-03T03:41:07.704Z,29.4
2018-11-03T03:41:57.891Z,29.4
2018-11-03T03:42:47.760Z,29.4
2018-11-03T03:43:37.826Z,29.4
2018-11-03T03:44:28.025Z,29.4
2018-11-03T03:45:18.284Z,29.4
2018-11-03T03:46:08.220Z,29.4
2018-11-03T03:46:58.060Z,29.4
2018-11-03T03:47:47.920Z,29.4
2018-11-03T03:48:38.076Z,29.4
2018-11-03T03:49:28.334Z,29.4
2018-11-03T03:50:18.648Z,29.4
2018-11-03T03:51:08.718Z,29.4
2018-11-03T03:51:58.492Z,29.4
2018-11-03T03:52:48.242Z,29.4
2018-11-03T03:53:38.760Z,29.4
2018-11-03T03:54:29.416Z,29.4
2018-11-03T03:55:19.440Z,29.4
2018-11-03T03:56:09.243Z,29.4
2018-11-03T03:56:58.083Z,29.4
2018-11-03T03:57:48.313Z,29.3
2018-11-03T03:58:38.568Z,29.4
2018-11-03T03:59:28.847Z,29.4
2018-11-03T04:00:17.969Z,29.4
2018-11-03T04:01:09.261Z,29.3
2018-11-03T04:01:59.080Z,29.3
2018-11-03T04:02:49.870Z,29.3
2018-11-03T04:03:39.834Z,29.3
2018-11-03T04:04:29.123Z,29.3
2018-11-03T04:05:19.862Z,29.3
2018-11-03T04:06:10.292Z,29.3
2018-11-03T04:06:59.860Z,29.3
2018-11-03T04:07:50.670Z,29.3
2018-11-03T04:08:40.455Z,29.3
2018-11-03T04:09:30.237Z,29.3
2018-11-03T04:10:20.240Z,29.3
2018-11-03T04:11:09.919Z,29.3
2018-11-03T04:11:59.307Z,29.3
2018-11-03T04:12:50.396Z,29.3
2018-11-03T04:13:40.245Z,29.3
2018-11-03T04:14:29.701Z,29.3
2018-11-03T04:15:20.450Z,29.3
2018-11-03T04:16:11.897Z,29.3
2018-11-03T04:17:00.778Z,29.3
2018-11-03T04:17:50.870Z,29.3
2018-11-03T04:18:39.762Z,29.3
2018-11-03T04:19:32.214Z,29.3
2018-11-03T04:20:20.299Z,29.3
2018-11-03T04:21:10.459Z,29.3
2018-11-03T04:22:00.351Z,29.2
2018-11-03T04:22:50.886Z,29.2
2018-11-03T04:23:40.152Z,29.2
2018-11-03T04:24:30.826Z,29.3
2018-11-03T04:25:35.689Z,29.2
2018-11-03T04:26:11.024Z,29.2
2018-11-03T04:27:01.501Z,29.2
2018-11-03T04:27:51.339Z,29.2
2018-11-03T04:28:40.804Z,29.3
2018-11-03T04:29:31.567Z,29.2
2018-11-03T04:30:21.137Z,29.2
2018-11-03T04:31:11.376Z,29.2
2018-11-03T04:32:01.652Z,29.2
2018-11-03T04:32:53.259Z,29.2
2018-11-03T04:33:41.093Z,29.1
2018-11-03T04:34:30.966Z,29.1
2018-11-03T04:35:21.088Z,29.2
2018-11-03T04:36:13.436Z,29.2
2018-11-03T04:54:12.678Z,29.1
2018-11-03T04:55:03.302Z,29.1
2018-11-03T04:55:52.097Z,29.1
2018-11-03T04:56:42.477Z,29.1
2018-11-03T04:57:31.835Z,29.1
2018-11-03T04:58:23.997Z,29.1
2018-11-03T04:59:12.703Z,29.1
2018-11-03T05:00:03.300Z,29.1
2018-11-03T05:00:52.612Z,29.1
2018-11-03T05:01:44.540Z,29.1
2018-11-03T05:02:33.033Z,29
2018-11-03T05:03:23.210Z,29
2018-11-03T05:04:12.547Z,29.1
2018-11-03T05:05:03.794Z,29
2018-11-03T05:05:52.604Z,29
2018-11-03T05:06:42.267Z,29
2018-11-03T05:07:33.944Z,29
2018-11-03T05:08:23.969Z,29
2018-11-03T05:09:12.527Z,29
2018-11-03T05:10:04.498Z,29
2018-11-03T05:10:52.584Z,29
2018-11-03T05:11:44.984Z,29
2018-11-03T05:12:34.066Z,29
2018-11-03T05:13:23.573Z,29
2018-11-03T05:14:14.211Z,29
2018-11-03T05:15:04.859Z,28.9
2018-11-03T05:15:54.584Z,28.9
2018-11-03T05:16:43.201Z,28.9
2018-11-03T05:17:34.125Z,29
2018-11-03T05:18:26.356Z,28.9
2018-11-03T05:19:14.276Z,28.9
2018-11-03T05:20:04.917Z,28.9
2018-11-03T05:20:53.926Z,28.9
2018-11-03T05:21:45.701Z,28.9
2018-11-03T05:22:34.466Z,28.9
2018-11-03T05:23:23.983Z,28.9
2018-11-03T05:24:14.148Z,28.9
2018-11-03T05:25:06.017Z,28.9
2018-11-03T05:25:54.001Z,28.9
2018-11-03T05:26:44.547Z,28.9
2018-11-03T05:27:35.125Z,28.9
2018-11-03T05:28:25.385Z,28.9
2018-11-03T05:29:14.158Z,28.9
2018-11-03T05:30:04.834Z,28.9
2018-11-03T05:30:54.629Z,28.9
2018-11-03T05:31:45.245Z,28.9
2018-11-03T05:32:35.556Z,28.9
2018-11-03T05:33:24.835Z,28.9
2018-11-03T05:34:15.239Z,28.9
2018-11-03T05:35:06.080Z,28.9
2018-11-03T05:35:54.880Z,28.9
2018-11-03T05:36:44.968Z,28.9
2018-11-03T05:37:33.676Z,28.9
2018-11-03T05:38:25.659Z,28.9
2018-11-03T05:39:15.165Z,28.9
2018-11-03T05:40:05.320Z,28.9
2018-11-03T05:40:55.577Z,28.9
2018-11-03T05:41:46.234Z,28.9
2018-11-03T05:42:36.010Z,28.8
2018-11-03T05:43:25.551Z,28.9
2018-11-03T05:44:15.277Z,28.8
2018-11-03T05:45:05.561Z,28.8
2018-11-03T05:45:56.154Z,28.9
2018-11-03T05:46:47.337Z,28.8
2018-11-03T05:47:35.876Z,28.8
2018-11-03T05:48:25.932Z,28.8
2018-11-03T05:49:15.953Z,28.8
2018-11-03T05:50:05.456Z,28.8
2018-11-03T05:50:57.295Z,28.8
2018-11-03T05:51:46.278Z,28.8
2018-11-03T05:52:36.569Z,28.8
2018-11-03T05:53:26.781Z,28.8
2018-11-03T05:54:16.074Z,28.8
2018-11-03T05:55:05.830Z,28.8
2018-11-03T05:55:56.025Z,28.8
2018-11-03T05:56:46.879Z,28.8
2018-11-03T05:57:36.794Z,28.8
2018-11-03T05:58:26.757Z,28.8
2018-11-03T05:59:16.584Z,28.8
2018-11-03T06:00:06.304Z,28.8
2018-11-03T06:00:57.322Z,28.8
2018-11-03T06:01:46.606Z,28.8
2018-11-03T06:02:36.899Z,28.8
2018-11-03T06:03:26.984Z,28.8
2018-11-03T06:04:17.869Z,28.8
2018-11-03T06:05:07.701Z,28.8
2018-11-03T06:05:57.933Z,28.8
2018-11-03T06:06:47.557Z,28.8
2018-11-03T06:07:37.363Z,28.8
2018-11-03T06:08:27.062Z,28.8
2018-11-03T06:09:17.705Z,28.7
2018-11-03T06:10:07.236Z,28.7
2018-11-03T06:10:57.466Z,28.6
2018-11-03T06:11:48.176Z,28.6
2018-11-03T06:12:37.844Z,28.6
2018-11-03T06:13:28.266Z,28.5
2018-11-03T06:14:17.676Z,28.5
2018-11-03T06:15:08.208Z,28.5
2018-11-03T06:15:58.948Z,28.4
2018-11-03T06:16:47.900Z,28.4
2018-11-03T06:17:38.161Z,28.4
2018-11-03T06:18:28.328Z,28.4
2018-11-03T06:19:18.590Z,28.3
2018-11-03T06:20:07.960Z,28.3
2018-11-03T06:20:59.213Z,28.3
2018-11-03T06:21:48.869Z,28.2
2018-11-03T06:22:40.429Z,28.1
2018-11-03T06:23:29.712Z,28.1
2018-11-03T06:24:18.688Z,28.1
2018-11-03T06:25:07.990Z,28.1
2018-11-03T06:25:59.143Z,28.1
2018-11-03T06:26:50.291Z,28
2018-11-03T06:27:39.319Z,28
2018-11-03T06:28:29.897Z,27.9
2018-11-03T06:29:19.628Z,27.9
2018-11-03T06:30:09.698Z,27.9
2018-11-03T06:30:59.465Z,27.9
2018-11-03T06:32:40.134Z,27.8
2018-11-03T06:33:29.366Z,27.8
2018-11-03T06:34:20.423Z,27.8
2018-11-03T06:35:10.776Z,27.7
2018-11-03T06:36:00.149Z,27.6
2018-11-03T06:36:49.104Z,27.6
2018-11-03T06:37:40.207Z,27.6
2018-11-03T06:38:29.926Z,27.6
2018-11-03T06:39:19.532Z,27.5
2018-11-03T06:40:10.924Z,27.4
2018-11-03T06:41:00.252Z,27.4
2018-11-03T06:41:50.862Z,27.4
2018-11-03T06:42:41.171Z,27.4
2018-11-03T06:43:29.208Z,27.4
2018-11-03T06:44:19.243Z,27.3
2018-11-03T06:45:11.056Z,27.3
2018-11-03T06:46:01.244Z,27.3
2018-11-03T06:46:51.206Z,27.2
2018-11-03T06:47:42.945Z,27.1
2018-11-03T06:48:30.173Z,27.1
2018-11-03T06:49:21.168Z,27.1
2018-11-03T06:50:10.001Z,27
2018-11-03T06:51:01.243Z,27
2018-11-03T06:51:50.354Z,26.9
2018-11-03T06:52:42.813Z,26.9
2018-11-03T06:53:31.693Z,22.8
2018-11-03T06:54:21.270Z,22.9
2018-11-03T06:55:10.813Z,30.1
2018-11-03T06:56:03.103Z,33.4
2018-11-03T06:56:52.233Z,32.6
2018-11-03T06:57:40.808Z,29.1
2018-11-03T06:58:32.331Z,26.6
2018-11-03T06:59:23.090Z,25.6
2018-11-03T07:00:11.910Z,25.8
2018-11-03T07:01:01.695Z,26.7
2018-11-03T07:02:42.947Z,28.7
2018-11-03T07:03:32.337Z,29
2018-11-03T07:04:21.697Z,28.8
2018-11-03T07:05:13.022Z,28.4
2018-11-03T07:06:03.991Z,28.2
2018-11-03T07:06:52.458Z,28.2
2018-11-03T07:07:42.126Z,28.4
2018-11-03T07:08:32.469Z,28.8
2018-11-03T07:09:24.089Z,29.1
2018-11-03T07:10:13.266Z,29.6
2018-11-03T07:11:02.981Z,29.9
2018-11-03T07:11:53.221Z,30.2
2018-11-03T07:12:46.755Z,30.3
2018-11-03T07:13:33.486Z,30.4
2018-11-03T07:14:23.191Z,30.4
2018-11-03T07:15:13.259Z,30.3
2018-11-03T07:16:04.906Z,30.2
2018-11-03T07:16:53.378Z,30.2
2018-11-03T07:17:44.010Z,30.3
2018-11-03T07:18:32.747Z,30.4
2018-11-03T07:19:25.018Z,30.8
2018-11-03T07:20:12.610Z,31.3
2018-11-03T07:21:03.770Z,31.8
2018-11-03T07:21:55.028Z,32.3
2018-11-03T07:22:45.127Z,32.7
2018-11-03T07:23:33.050Z,33
2018-11-03T07:24:23.975Z,33.3
2018-11-03T07:25:12.427Z,33.6
2018-11-03T07:26:04.040Z,33.7
2018-11-03T07:26:54.094Z,33.6
2018-11-03T07:27:43.622Z,33.4
2018-11-03T07:28:34.017Z,33.2
2018-11-03T07:29:24.457Z,33.1
2018-11-03T07:30:13.803Z,33
2018-11-03T07:31:03.877Z,33.1
2018-11-03T07:31:53.665Z,33.1
2018-11-03T07:32:43.987Z,33.1
2018-11-03T07:33:34.590Z,32.9
2018-11-03T07:34:24.179Z,32.8
2018-11-03T07:35:14.992Z,32.8
2018-11-03T07:36:05.142Z,32.9
2018-11-03T07:36:55.183Z,33.4
2018-11-03T07:37:45.212Z,33.9
2018-11-03T07:38:35.817Z,34.6
2018-11-03T07:39:24.563Z,35.1
2018-11-03T07:40:15.139Z,35.4
2018-11-03T07:41:05.572Z,35.4
2018-11-03T07:41:54.472Z,35.4
2018-11-03T07:42:45.858Z,35.4
2018-11-03T07:43:35.102Z,35.4
2018-11-03T07:44:24.546Z,35.6
2018-11-03T07:45:14.986Z,35.8
2018-11-03T07:46:05.123Z,36
2018-11-03T07:46:54.731Z,36.1
2018-11-03T07:47:44.488Z,36.1
2018-11-03T07:48:35.661Z,36.2
2018-11-03T07:49:25.322Z,36.3
2018-11-03T07:50:15.564Z,36.4
2018-11-03T07:51:05.003Z,36.6
2018-11-03T07:51:55.253Z,36.9
2018-11-03T07:52:45.685Z,37.2
2018-11-03T07:53:35.300Z,37.5
2018-11-03T07:54:25.704Z,37.8
2018-11-03T07:55:15.641Z,38
2018-11-03T07:56:04.605Z,38.2
2018-11-03T07:56:56.725Z,38.4
2018-11-03T07:57:45.917Z,38.5
2018-11-03T07:58:36.013Z,38.8
2018-11-03T07:59:25.138Z,38.9
2018-11-03T08:00:16.103Z,38.9
2018-11-03T08:01:06.318Z,38.9
2018-11-03T08:01:56.361Z,38.8
2018-11-03T08:02:45.967Z,38.8
2018-11-03T08:03:35.802Z,38.8
2018-11-03T08:04:25.528Z,38.8
2018-11-03T08:05:16.436Z,38.8
2018-11-03T08:06:06.156Z,38.7
2018-11-03T08:06:56.272Z,38.6
2018-11-03T08:07:47.454Z,38.7
2018-11-03T08:08:37.659Z,38.9
2018-11-03T08:09:27.050Z,39.1
2018-11-03T08:10:17.251Z,39.3
2018-11-03T08:11:06.270Z,39.4
2018-11-03T08:11:57.607Z,39.4
2018-11-03T08:12:46.887Z,39.3
2018-11-03T08:13:38.333Z,39.3
2018-11-03T08:14:27.047Z,39.3
2018-11-03T08:15:16.344Z,39.4
2018-11-03T08:16:06.477Z,39.4
2018-11-03T08:16:57.207Z,39.5
2018-11-03T08:17:47.572Z,39.6
2018-11-03T08:18:36.624Z,39.6
2018-11-03T08:19:28.071Z,39.6
2018-11-03T08:20:16.611Z,39.8
2018-11-03T08:21:07.842Z,39.8
2018-11-03T08:21:57.839Z,40
2018-11-03T08:22:48.311Z,40.3
2018-11-03T08:23:37.709Z,40.6
2018-11-03T08:24:27.749Z,41
2018-11-03T08:25:18.633Z,41.4
2018-11-03T08:26:07.789Z,41.8
2018-11-03T08:26:57.917Z,41.9
2018-11-03T08:27:48.029Z,42.1
2018-11-03T08:28:37.095Z,42.2
2018-11-03T08:29:28.406Z,42.3
2018-11-03T08:30:18.123Z,42.5
2018-11-03T08:31:07.963Z,43
2018-11-03T08:31:58.556Z,43.6
2018-11-03T08:32:48.141Z,44.1
2018-11-03T08:33:38.248Z,44.6
2018-11-03T08:34:28.755Z,44.9
2018-11-03T08:35:18.793Z,45.1
2018-11-03T08:36:08.143Z,45.1
2018-11-03T08:36:59.497Z,45.2
2018-11-03T08:37:48.796Z,45.5
2018-11-03T08:38:38.227Z,45.9
2018-11-03T08:39:29.407Z,46.4
2018-11-03T08:40:18.815Z,46.9
2018-11-03T08:41:09.850Z,47.3
2018-11-03T08:41:58.930Z,47.4
2018-11-03T08:42:49.973Z,47.4
2018-11-03T08:43:39.580Z,47.4
2018-11-03T08:44:29.042Z,47.2
2018-11-03T08:45:19.640Z,46.9
2018-11-03T08:46:09.372Z,46.8
2018-11-03T08:46:59.517Z,46.6
2018-11-03T08:47:49.839Z,46.6
2018-11-03T08:48:39.771Z,46.6
2018-11-03T08:49:30.175Z,46.6
2018-11-03T08:50:20.125Z,46.6
2018-11-03T08:51:09.700Z,46.8
2018-11-03T08:52:00.083Z,47
2018-11-03T09:08:45.866Z,51.3
2018-11-03T09:09:35.455Z,51.4
2018-11-03T09:10:24.395Z,51.4
2018-11-03T09:11:15.778Z,51.5
2018-11-03T09:12:06.067Z,51.6
2018-11-03T09:12:55.691Z,51.8
2018-11-03T09:13:46.204Z,51.9
2018-11-03T09:14:36.520Z,51.9
2018-11-03T09:15:26.392Z,51.9
2018-11-03T09:16:15.120Z,51.9
2018-11-03T09:17:06.242Z,51.9
2018-11-03T09:17:54.934Z,52.1
2018-11-03T09:18:46.144Z,52.3
2018-11-03T09:19:36.752Z,52.6
2018-11-03T09:20:25.602Z,52.7
2018-11-03T09:21:16.742Z,52.8
2018-11-03T09:22:06.204Z,52.6
2018-11-03T09:22:56.249Z,52.5
2018-11-03T09:23:47.006Z,52.6
2018-11-03T09:24:37.302Z,52.8
2018-11-03T09:25:26.202Z,53
2018-11-03T09:26:15.694Z,53.3
2018-11-03T09:27:06.977Z,53.6
2018-11-03T09:27:56.677Z,53.7
2018-11-03T09:28:46.408Z,53.7
2018-11-03T09:29:36.871Z,53.7
2018-11-03T09:30:27.448Z,53.7
2018-11-03T09:31:17.313Z,53.6
2018-11-03T09:32:09.089Z,53.6
2018-11-03T09:32:57.021Z,53.5
2018-11-03T09:33:47.381Z,53.4
2018-11-03T09:34:38.435Z,53.3
2018-11-03T09:35:27.369Z,53.2
2018-11-03T09:36:17.518Z,53.3
2018-11-03T09:37:07.686Z,53.6
2018-11-03T09:37:57.016Z,53.8
2018-11-03T09:38:48.483Z,54
2018-11-03T09:39:37.681Z,54.2
2018-11-03T09:40:26.675Z,54.3
2018-11-03T09:41:18.003Z,54.3
2018-11-03T09:42:07.431Z,54.4
2018-11-03T09:42:58.804Z,54.6
2018-11-03T09:43:47.633Z,54.8
2018-11-03T09:44:38.135Z,54.9
2018-11-03T09:45:27.763Z,55.1
2018-11-03T09:46:17.133Z,55.2
2018-11-03T09:47:07.373Z,55.4
2018-11-03T09:47:57.660Z,55.6
2018-11-03T09:48:47.427Z,55.8
2018-11-03T09:49:37.542Z,55.8
2018-11-03T09:50:27.337Z,55.9
2018-11-03T09:51:19.340Z,55.9
2018-11-03T09:52:07.648Z,55.9
2018-11-03T09:52:58.305Z,55.9
2018-11-03T09:53:49.110Z,55.9
2018-11-03T09:54:38.106Z,55.8
2018-11-03T09:55:28.731Z,55.6
2018-11-03T09:56:19.168Z,55.4
2018-11-03T09:57:09.029Z,55.3
2018-11-03T09:57:59.460Z,55.3
2018-11-03T09:58:48.740Z,55.2
2018-11-03T09:59:38.111Z,55.1
2018-11-03T10:00:29.293Z,54.9
2018-11-03T10:01:19.435Z,54.6
2018-11-03T10:02:08.004Z,54.4
2018-11-03T10:02:58.939Z,54.5
2018-11-03T10:03:48.422Z,54.5
2018-11-03T10:04:38.871Z,54.6
2018-11-03T10:05:30.349Z,54.7
2018-11-03T10:06:19.062Z,54.9
2018-11-03T10:07:10.647Z,55.1
2018-11-03T10:07:59.091Z,55.3
2018-11-03T10:08:49.109Z,55.4
2018-11-03T10:09:39.867Z,55.4
2018-11-03T10:10:32.486Z,55.3
2018-11-03T10:11:20.429Z,55.2
2018-11-03T10:12:09.714Z,55
2018-11-03T10:13:00.331Z,54.9
2018-11-03T10:13:51.772Z,54.9
2018-11-03T10:14:39.311Z,54.9
2018-11-03T10:15:29.469Z,55
2018-11-03T10:16:21.320Z,55.2
2018-11-03T10:17:10.814Z,55.4
2018-11-03T10:18:00.646Z,55.5
2018-11-03T10:18:50.226Z,55.6
2018-11-03T10:19:40.315Z,55.7
2018-11-03T10:20:31.636Z,55.8
2018-11-03T10:21:20.181Z,55.9
2018-11-03T10:22:11.131Z,56.1
2018-11-03T10:23:01.309Z,56.2
2018-11-03T10:23:51.538Z,56.3
2018-11-03T10:24:40.825Z,56.3
2018-11-03T10:25:31.471Z,56.4
2018-11-03T10:26:20.459Z,56.4
2018-11-03T10:27:12.259Z,56.4
2018-11-03T10:28:01.073Z,56.4
2018-11-03T10:28:51.160Z,56.4
2018-11-03T10:29:40.935Z,56.4
2018-11-03T10:30:31.318Z,56.3
2018-11-03T10:31:20.859Z,56.3
2018-11-03T10:32:11.952Z,56.3
2018-11-03T10:33:01.238Z,56.2
2018-11-03T10:33:54.510Z,56.1
2018-11-03T10:34:42.165Z,56.1
2018-11-03T10:35:32.265Z,56.3
2018-11-03T10:36:22.575Z,56.5
2018-11-03T10:37:12.113Z,56.8
2018-11-03T10:38:01.488Z,57.2
2018-11-03T10:38:50.690Z,57.5
2018-11-03T10:39:41.735Z,57.8
2018-11-03T10:40:31.850Z,58.1
2018-11-03T10:41:22.026Z,58.3
2018-11-03T10:42:11.761Z,58.5
2018-11-03T10:43:01.795Z,58.6
2018-11-03T10:43:53.609Z,58.7
2018-11-03T10:44:42.313Z,58.8
2018-11-03T10:45:31.787Z,58.8
2018-11-03T10:46:24.039Z,58.8
2018-11-03T10:47:12.884Z,58.8
2018-11-03T10:48:01.284Z,59
2018-11-03T10:48:53.500Z,59.1
2018-11-03T10:49:42.212Z,59.3
2018-11-03T10:50:32.626Z,59.2
2018-11-03T10:51:23.194Z,59.2
2018-11-03T10:52:12.361Z,59.2
2018-11-03T10:53:03.761Z,59.3
2018-11-03T10:53:54.243Z,59.3
2018-11-03T10:54:42.418Z,59.4
2018-11-03T10:55:32.592Z,59.5
2018-11-03T10:56:22.199Z,59.6
2018-11-03T10:57:12.862Z,59.7
2018-11-03T10:58:04.155Z,59.7
2018-11-03T10:58:53.344Z,59.6
2018-11-03T10:59:43.466Z,59.4
2018-11-03T11:00:33.491Z,59.1
2018-11-03T11:01:23.626Z,58.8
2018-11-03T11:02:13.736Z,58.4
2018-11-03T11:03:03.454Z,58.1
2018-11-03T11:03:53.168Z,57.9
2018-11-03T11:04:44.329Z,57.7
2018-11-03T11:05:33.653Z,57.6
2018-11-03T11:06:23.161Z,57.4
2018-11-03T11:07:13.403Z,57.4
2018-11-03T11:08:03.863Z,57.5
2018-11-03T11:08:53.723Z,57.6
2018-11-03T11:09:43.569Z,57.7
2018-11-03T11:10:33.683Z,57.6
2018-11-03T11:11:23.640Z,57.5
2018-11-03T11:12:14.168Z,57.3
2018-11-03T11:13:04.280Z,57.3
2018-11-03T11:13:54.619Z,57.2
2018-11-03T11:14:43.468Z,57.1
2018-11-03T11:15:34.238Z,57.2
2018-11-03T11:16:25.860Z,57.3
2018-11-03T11:17:14.469Z,57.2
2018-11-03T11:18:04.786Z,57.1
2018-11-03T11:18:54.682Z,56.9
2018-11-03T11:19:45.234Z,56.6
2018-11-03T11:20:34.675Z,56.1
2018-11-03T11:21:25.120Z,55.8
2018-11-03T11:22:14.588Z,55.5
2018-11-03T11:23:04.591Z,55.4
2018-11-03T11:23:57.229Z,55.4
2018-11-03T11:24:46.028Z,55.4
2018-11-03T11:25:36.192Z,55.4
2018-11-03T11:26:25.404Z,55.3
2018-11-03T11:27:14.689Z,55.1
2018-11-03T11:28:05.104Z,54.9
2018-11-03T11:28:56.269Z,54.7
2018-11-03T11:29:45.801Z,54.6
2018-11-03T11:30:35.794Z,54.6
2018-11-03T11:31:26.762Z,54.8
2018-11-03T11:32:15.772Z,55
2018-11-03T11:33:06.254Z,55.1
2018-11-03T11:33:56.309Z,55.1
2018-11-03T11:34:46.697Z,55.2
2018-11-03T11:35:36.153Z,55.3
2018-11-03T11:36:25.746Z,55.4
2018-11-03T11:37:16.676Z,55.6
2018-11-03T11:38:06.611Z,55.8
2018-11-03T11:38:56.364Z,56.1
2018-11-03T11:39:46.216Z,56.2
2018-11-03T11:40:36.084Z,56.2
2018-11-03T11:41:26.824Z,56.2
2018-11-03T11:42:16.884Z,56.1
2018-11-03T11:43:06.239Z,55.9
2018-11-03T11:43:56.877Z,55.8
2018-11-03T11:44:46.481Z,55.6
2018-11-03T11:45:37.064Z,55.5
2018-11-03T11:46:27.148Z,55.4
2018-11-03T11:47:16.481Z,55.3
2018-11-03T11:48:06.306Z,55.3
2018-11-03T11:48:56.931Z,55.3
2018-11-03T11:49:47.211Z,55.4
2018-11-03T11:50:37.201Z,55.4
2018-11-03T11:51:27.541Z,55.6
2018-11-03T11:52:17.354Z,55.7
2018-11-03T11:53:07.736Z,55.8
2018-11-03T11:53:57.747Z,56
2018-11-03T11:54:48.054Z,56.3
2018-11-03T11:55:37.023Z,56.4
2018-11-03T11:56:27.743Z,56.4
2018-11-03T11:57:17.558Z,56.2
2018-11-03T11:58:09.575Z,56.1
2018-11-03T11:58:57.521Z,56.1
2018-11-03T11:59:47.303Z,56.3
2018-11-03T12:00:41.274Z,56.6